sensor_id;sensor_type;location;lat;lon;timestamp;P1;durP1;ratioP1;P2;durP2;ratioP2
17592;SDS011;8915;51.760;14.300;2022-10-26T00:01:17;6.50;;;4.00;;
17592;SDS011;8915;51.760;14.300;2022-10-26T00:03:45;4.70;;;3.90;;
17592;SDS011;8915;51.760;14.300;2022-10-26T00:06:13;4.00;;;3.40;;
17592;SDS011;8915;51.760;14.300;2022-10-26T00:08:42;4.37;;;3.30;;
17592;SDS011;8915;51.760;14.300;2022-10-26T00:11:09;7.27;;;3.70;;
17592;SDS011;8915;51.760;14.300;2022-10-26T00:13:37;4.30;;;3.83;;
17592;SDS011;8915;51.760;14.300;2022-10-26T00:16:08;5.97;;;3.63;;
17592;SDS011;8915;51.760;14.300;2022-10-26T00:18:36;7.17;;;3.50;;
17592;SDS011;8915;51.760;14.300;2022-10-26T00:21:03;5.17;;;3.30;;
17592;SDS011;8915;51.760;14.300;2022-10-26T00:23:32;4.53;;;3.43;;
17592;SDS011;8915;51.760;14.300;2022-10-26T00:25:58;6.80;;;3.90;;
17592;SDS011;8915;51.760;14.300;2022-10-26T00:28:25;6.37;;;4.07;;
17592;SDS011;8915;51.760;14.300;2022-10-26T00:30:52;7.40;;;3.70;;
17592;SDS011;8915;51.760;14.300;2022-10-26T00:33:19;4.07;;;3.27;;
17592;SDS011;8915;51.760;14.300;2022-10-26T00:35:46;4.83;;;3.83;;
17592;SDS011;8915;51.760;14.300;2022-10-26T00:38:13;7.97;;;3.07;;
17592;SDS011;8915;51.760;14.300;2022-10-26T00:40:40;5.73;;;3.27;;
17592;SDS011;8915;51.760;14.300;2022-10-26T00:43:09;6.43;;;4.27;;
17592;SDS011;8915;51.760;14.300;2022-10-26T00:45:57;4.87;;;3.23;;
17592;SDS011;8915;51.760;14.300;2022-10-26T00:48:25;3.77;;;3.27;;
17592;SDS011;8915;51.760;14.300;2022-10-26T00:50:54;6.10;;;3.60;;
17592;SDS011;8915;51.760;14.300;2022-10-26T00:53:23;7.13;;;3.37;;
17592;SDS011;8915;51.760;14.300;2022-10-26T00:55:51;4.07;;;3.30;;
17592;SDS011;8915;51.760;14.300;2022-10-26T00:58:19;5.87;;;3.47;;
17592;SDS011;8915;51.760;14.300;2022-10-26T01:00:47;5.07;;;3.33;;
17592;SDS011;8915;51.760;14.300;2022-10-26T01:03:14;6.30;;;3.63;;
17592;SDS011;8915;51.760;14.300;2022-10-26T01:05:43;4.97;;;3.17;;
17592;SDS011;8915;51.760;14.300;2022-10-26T01:08:11;6.33;;;3.03;;
17592;SDS011;8915;51.760;14.300;2022-10-26T01:10:39;4.40;;;2.87;;
17592;SDS011;8915;51.760;14.300;2022-10-26T01:13:09;4.27;;;3.40;;
17592;SDS011;8915;51.760;14.300;2022-10-26T01:15:38;7.90;;;4.13;;
17592;SDS011;8915;51.760;14.300;2022-10-26T01:18:15;5.20;;;4.17;;
17592;SDS011;8915;51.760;14.300;2022-10-26T01:23:58;7.50;;;3.77;;
17592;SDS011;8915;51.760;14.300;2022-10-26T01:26:42;5.77;;;3.33;;
17592;SDS011;8915;51.760;14.300;2022-10-26T01:29:25;3.90;;;2.77;;
17592;SDS011;8915;51.760;14.300;2022-10-26T01:32:05;5.70;;;3.10;;
17592;SDS011;8915;51.760;14.300;2022-10-26T01:34:39;7.77;;;3.63;;
17592;SDS011;8915;51.760;14.300;2022-10-26T01:37:11;4.67;;;3.80;;
17592;SDS011;8915;51.760;14.300;2022-10-26T01:39:40;6.07;;;3.33;;
17592;SDS011;8915;51.760;14.300;2022-10-26T01:42:11;4.30;;;3.60;;
17592;SDS011;8915;51.760;14.300;2022-10-26T01:44:44;3.40;;;3.07;;
17592;SDS011;8915;51.760;14.300;2022-10-26T01:47:16;3.17;;;2.60;;
17592;SDS011;8915;51.760;14.300;2022-10-26T01:49:45;5.97;;;2.83;;
17592;SDS011;8915;51.760;14.300;2022-10-26T01:52:16;5.17;;;3.17;;
17592;SDS011;8915;51.760;14.300;2022-10-26T01:54:43;5.57;;;2.93;;
17592;SDS011;8915;51.760;14.300;2022-10-26T01:57:10;3.67;;;3.13;;
17592;SDS011;8915;51.760;14.300;2022-10-26T01:59:53;5.77;;;3.33;;
17592;SDS011;8915;51.760;14.300;2022-10-26T02:02:30;4.23;;;3.67;;
17592;SDS011;8915;51.760;14.300;2022-10-26T02:05:31;4.03;;;3.00;;
17592;SDS011;8915;51.760;14.300;2022-10-26T02:08:13;4.73;;;4.03;;
17592;SDS011;8915;51.760;14.300;2022-10-26T02:10:53;7.50;;;3.80;;
17592;SDS011;8915;51.760;14.300;2022-10-26T02:13:28;5.60;;;3.30;;
17592;SDS011;8915;51.760;14.300;2022-10-26T02:16:05;4.67;;;3.47;;
17592;SDS011;8915;51.760;14.300;2022-10-26T02:18:41;3.80;;;3.40;;
17592;SDS011;8915;51.760;14.300;2022-10-26T02:21:17;3.50;;;2.73;;
17592;SDS011;8915;51.760;14.300;2022-10-26T02:23:46;5.47;;;3.67;;
17592;SDS011;8915;51.760;14.300;2022-10-26T02:26:14;4.40;;;3.23;;
17592;SDS011;8915;51.760;14.300;2022-10-26T02:28:44;5.33;;;3.90;;
17592;SDS011;8915;51.760;14.300;2022-10-26T02:31:13;6.13;;;4.20;;
17592;SDS011;8915;51.760;14.300;2022-10-26T02:33:42;6.03;;;3.67;;
17592;SDS011;8915;51.760;14.300;2022-10-26T02:36:13;5.93;;;3.80;;
17592;SDS011;8915;51.760;14.300;2022-10-26T02:38:44;5.53;;;3.63;;
17592;SDS011;8915;51.760;14.300;2022-10-26T02:41:12;4.20;;;3.47;;
17592;SDS011;8915;51.760;14.300;2022-10-26T02:43:42;6.63;;;4.00;;
17592;SDS011;8915;51.760;14.300;2022-10-26T02:46:14;6.20;;;3.87;;
17592;SDS011;8915;51.760;14.300;2022-10-26T02:48:46;6.80;;;4.10;;
17592;SDS011;8915;51.760;14.300;2022-10-26T02:51:15;7.43;;;4.70;;
17592;SDS011;8915;51.760;14.300;2022-10-26T02:53:47;8.27;;;3.83;;
17592;SDS011;8915;51.760;14.300;2022-10-26T02:56:17;5.23;;;4.20;;
17592;SDS011;8915;51.760;14.300;2022-10-26T02:58:48;5.50;;;3.73;;
17592;SDS011;8915;51.760;14.300;2022-10-26T03:01:18;7.90;;;4.70;;
17592;SDS011;8915;51.760;14.300;2022-10-26T03:03:46;5.80;;;3.83;;
17592;SDS011;8915;51.760;14.300;2022-10-26T03:06:19;7.17;;;3.77;;
17592;SDS011;8915;51.760;14.300;2022-10-26T03:08:46;5.17;;;3.40;;
17592;SDS011;8915;51.760;14.300;2022-10-26T03:11:12;4.80;;;3.50;;
17592;SDS011;8915;51.760;14.300;2022-10-26T03:13:38;6.33;;;3.83;;
17592;SDS011;8915;51.760;14.300;2022-10-26T03:16:05;5.20;;;3.50;;
17592;SDS011;8915;51.760;14.300;2022-10-26T03:18:31;5.07;;;3.37;;
17592;SDS011;8915;51.760;14.300;2022-10-26T03:20:59;5.10;;;3.57;;
17592;SDS011;8915;51.760;14.300;2022-10-26T03:23:25;6.47;;;3.50;;
17592;SDS011;8915;51.760;14.300;2022-10-26T03:25:55;4.53;;;3.47;;
17592;SDS011;8915;51.760;14.300;2022-10-26T03:28:21;8.33;;;3.43;;
17592;SDS011;8915;51.760;14.300;2022-10-26T03:30:48;5.50;;;3.17;;
17592;SDS011;8915;51.760;14.300;2022-10-26T03:33:14;5.70;;;3.43;;
17592;SDS011;8915;51.760;14.300;2022-10-26T03:35:40;5.47;;;3.30;;
17592;SDS011;8915;51.760;14.300;2022-10-26T03:38:08;6.43;;;3.03;;
17592;SDS011;8915;51.760;14.300;2022-10-26T03:40:35;5.20;;;3.57;;
17592;SDS011;8915;51.760;14.300;2022-10-26T03:43:01;7.07;;;3.20;;
17592;SDS011;8915;51.760;14.300;2022-10-26T03:45:28;4.47;;;3.50;;
17592;SDS011;8915;51.760;14.300;2022-10-26T03:47:54;6.80;;;3.20;;
17592;SDS011;8915;51.760;14.300;2022-10-26T03:50:21;3.63;;;2.80;;
17592;SDS011;8915;51.760;14.300;2022-10-26T03:52:48;3.17;;;2.60;;
17592;SDS011;8915;51.760;14.300;2022-10-26T03:55:16;4.27;;;3.10;;
17592;SDS011;8915;51.760;14.300;2022-10-26T03:57:43;9.93;;;3.27;;
17592;SDS011;8915;51.760;14.300;2022-10-26T04:00:11;5.07;;;3.33;;
17592;SDS011;8915;51.760;14.300;2022-10-26T04:02:41;3.77;;;2.90;;
17592;SDS011;8915;51.760;14.300;2022-10-26T04:05:10;5.80;;;2.90;;
17592;SDS011;8915;51.760;14.300;2022-10-26T04:07:37;3.53;;;2.90;;
17592;SDS011;8915;51.760;14.300;2022-10-26T04:10:04;4.97;;;2.93;;
17592;SDS011;8915;51.760;14.300;2022-10-26T04:12:33;3.87;;;3.10;;
17592;SDS011;8915;51.760;14.300;2022-10-26T04:15:01;6.73;;;3.30;;
17592;SDS011;8915;51.760;14.300;2022-10-26T04:17:28;4.50;;;3.00;;
17592;SDS011;8915;51.760;14.300;2022-10-26T04:19:55;7.73;;;2.87;;
17592;SDS011;8915;51.760;14.300;2022-10-26T04:22:21;4.23;;;3.00;;
17592;SDS011;8915;51.760;14.300;2022-10-26T04:24:48;5.67;;;2.97;;
17592;SDS011;8915;51.760;14.300;2022-10-26T04:27:14;4.83;;;3.20;;
17592;SDS011;8915;51.760;14.300;2022-10-26T04:29:42;4.90;;;3.10;;
17592;SDS011;8915;51.760;14.300;2022-10-26T04:32:08;5.80;;;3.57;;
17592;SDS011;8915;51.760;14.300;2022-10-26T04:34:34;9.50;;;3.73;;
17592;SDS011;8915;51.760;14.300;2022-10-26T04:37:01;4.30;;;3.07;;
17592;SDS011;8915;51.760;14.300;2022-10-26T04:39:27;4.50;;;3.13;;
17592;SDS011;8915;51.760;14.300;2022-10-26T04:41:53;4.00;;;2.90;;
17592;SDS011;8915;51.760;14.300;2022-10-26T04:44:20;4.57;;;3.57;;
17592;SDS011;8915;51.760;14.300;2022-10-26T04:46:47;5.57;;;3.80;;
17592;SDS011;8915;51.760;14.300;2022-10-26T04:49:14;4.63;;;3.43;;
17592;SDS011;8915;51.760;14.300;2022-10-26T04:51:40;4.83;;;3.43;;
17592;SDS011;8915;51.760;14.300;2022-10-26T04:54:07;7.93;;;4.03;;
17592;SDS011;8915;51.760;14.300;2022-10-26T04:56:33;4.23;;;3.17;;
17592;SDS011;8915;51.760;14.300;2022-10-26T04:58:59;6.23;;;3.67;;
17592;SDS011;8915;51.760;14.300;2022-10-26T05:01:27;5.87;;;3.83;;
17592;SDS011;8915;51.760;14.300;2022-10-26T05:03:57;7.27;;;3.60;;
17592;SDS011;8915;51.760;14.300;2022-10-26T05:06:23;5.00;;;3.63;;
17592;SDS011;8915;51.760;14.300;2022-10-26T05:08:50;6.20;;;3.80;;
17592;SDS011;8915;51.760;14.300;2022-10-26T05:11:16;8.17;;;4.07;;
17592;SDS011;8915;51.760;14.300;2022-10-26T05:13:42;6.13;;;3.97;;
17592;SDS011;8915;51.760;14.300;2022-10-26T05:16:09;4.47;;;3.40;;
17592;SDS011;8915;51.760;14.300;2022-10-26T05:18:35;5.57;;;3.97;;
17592;SDS011;8915;51.760;14.300;2022-10-26T05:21:03;7.33;;;3.83;;
17592;SDS011;8915;51.760;14.300;2022-10-26T05:23:29;8.33;;;3.70;;
17592;SDS011;8915;51.760;14.300;2022-10-26T05:25:56;5.17;;;3.37;;
17592;SDS011;8915;51.760;14.300;2022-10-26T05:28:22;6.17;;;3.73;;
17592;SDS011;8915;51.760;14.300;2022-10-26T05:30:48;5.17;;;3.83;;
17592;SDS011;8915;51.760;14.300;2022-10-26T05:33:15;7.60;;;3.93;;
17592;SDS011;8915;51.760;14.300;2022-10-26T05:35:41;6.63;;;3.47;;
17592;SDS011;8915;51.760;14.300;2022-10-26T05:38:09;5.27;;;3.53;;
17592;SDS011;8915;51.760;14.300;2022-10-26T05:40:38;4.90;;;3.33;;
17592;SDS011;8915;51.760;14.300;2022-10-26T05:43:11;4.47;;;3.23;;
17592;SDS011;8915;51.760;14.300;2022-10-26T05:45:38;4.57;;;3.17;;
17592;SDS011;8915;51.760;14.300;2022-10-26T05:48:05;5.03;;;3.20;;
17592;SDS011;8915;51.760;14.300;2022-10-26T05:50:31;4.60;;;3.50;;
17592;SDS011;8915;51.760;14.300;2022-10-26T05:52:57;5.60;;;3.77;;
17592;SDS011;8915;51.760;14.300;2022-10-26T05:55:26;4.40;;;3.73;;
17592;SDS011;8915;51.760;14.300;2022-10-26T05:57:52;5.57;;;3.40;;
17592;SDS011;8915;51.760;14.300;2022-10-26T06:00:20;6.00;;;3.37;;
17592;SDS011;8915;51.760;14.300;2022-10-26T06:02:52;5.43;;;3.30;;
17592;SDS011;8915;51.760;14.300;2022-10-26T06:05:31;6.67;;;3.53;;
17592;SDS011;8915;51.760;14.300;2022-10-26T06:08:04;4.10;;;3.23;;
17592;SDS011;8915;51.760;14.300;2022-10-26T06:10:36;5.27;;;3.40;;
17592;SDS011;8915;51.760;14.300;2022-10-26T06:13:03;5.57;;;3.63;;
17592;SDS011;8915;51.760;14.300;2022-10-26T06:15:30;4.87;;;3.57;;
17592;SDS011;8915;51.760;14.300;2022-10-26T06:18:06;5.10;;;3.67;;
17592;SDS011;8915;51.760;14.300;2022-10-26T06:20:43;9.37;;;3.50;;
17592;SDS011;8915;51.760;14.300;2022-10-26T06:23:27;6.10;;;3.77;;
17592;SDS011;8915;51.760;14.300;2022-10-26T06:26:07;6.57;;;3.13;;
17592;SDS011;8915;51.760;14.300;2022-10-26T06:28:43;5.57;;;3.80;;
17592;SDS011;8915;51.760;14.300;2022-10-26T06:31:19;5.73;;;4.23;;
17592;SDS011;8915;51.760;14.300;2022-10-26T06:33:45;7.67;;;4.00;;
17592;SDS011;8915;51.760;14.300;2022-10-26T06:36:15;8.10;;;3.97;;
17592;SDS011;8915;51.760;14.300;2022-10-26T06:38:46;7.57;;;4.17;;
17592;SDS011;8915;51.760;14.300;2022-10-26T06:41:16;6.70;;;4.00;;
17592;SDS011;8915;51.760;14.300;2022-10-26T06:43:44;6.90;;;4.27;;
17592;SDS011;8915;51.760;14.300;2022-10-26T06:46:13;4.33;;;3.53;;
17592;SDS011;8915;51.760;14.300;2022-10-26T06:48:54;5.50;;;3.70;;
17592;SDS011;8915;51.760;14.300;2022-10-26T06:51:25;9.10;;;3.77;;
17592;SDS011;8915;51.760;14.300;2022-10-26T06:53:56;7.37;;;4.17;;
17592;SDS011;8915;51.760;14.300;2022-10-26T06:56:31;9.13;;;5.17;;
17592;SDS011;8915;51.760;14.300;2022-10-26T06:58:59;8.03;;;5.00;;
17592;SDS011;8915;51.760;14.300;2022-10-26T07:01:31;9.43;;;5.27;;
17592;SDS011;8915;51.760;14.300;2022-10-26T07:03:58;6.63;;;4.33;;
17592;SDS011;8915;51.760;14.300;2022-10-26T07:06:24;8.70;;;5.83;;
17592;SDS011;8915;51.760;14.300;2022-10-26T07:08:50;6.17;;;4.83;;
17592;SDS011;8915;51.760;14.300;2022-10-26T07:11:17;9.50;;;5.33;;
17592;SDS011;8915;51.760;14.300;2022-10-26T07:13:44;10.23;;;4.43;;
17592;SDS011;8915;51.760;14.300;2022-10-26T07:16:11;10.70;;;5.10;;
17592;SDS011;8915;51.760;14.300;2022-10-26T07:18:37;8.17;;;5.13;;
17592;SDS011;8915;51.760;14.300;2022-10-26T07:21:03;7.23;;;4.37;;
17592;SDS011;8915;51.760;14.300;2022-10-26T07:23:30;11.50;;;4.40;;
17592;SDS011;8915;51.760;14.300;2022-10-26T07:25:57;8.17;;;5.10;;
17592;SDS011;8915;51.760;14.300;2022-10-26T07:28:24;17.73;;;7.13;;
17592;SDS011;8915;51.760;14.300;2022-10-26T07:30:52;7.80;;;5.23;;
17592;SDS011;8915;51.760;14.300;2022-10-26T07:33:18;13.33;;;7.37;;
17592;SDS011;8915;51.760;14.300;2022-10-26T07:35:45;8.93;;;6.17;;
17592;SDS011;8915;51.760;14.300;2022-10-26T07:38:11;7.20;;;5.17;;
17592;SDS011;8915;51.760;14.300;2022-10-26T07:40:38;15.87;;;10.70;;
17592;SDS011;8915;51.760;14.300;2022-10-26T07:43:05;10.77;;;8.13;;
17592;SDS011;8915;51.760;14.300;2022-10-26T07:45:31;10.17;;;8.13;;
17592;SDS011;8915;51.760;14.300;2022-10-26T07:47:59;12.27;;;8.10;;
17592;SDS011;8915;51.760;14.300;2022-10-26T07:50:25;11.77;;;8.27;;
17592;SDS011;8915;51.760;14.300;2022-10-26T07:52:51;10.63;;;7.60;;
17592;SDS011;8915;51.760;14.300;2022-10-26T07:55:18;10.87;;;8.10;;
17592;SDS011;8915;51.760;14.300;2022-10-26T07:57:45;10.20;;;6.27;;
17592;SDS011;8915;51.760;14.300;2022-10-26T08:00:12;14.83;;;8.27;;
17592;SDS011;8915;51.760;14.300;2022-10-26T08:02:39;10.03;;;6.70;;
17592;SDS011;8915;51.760;14.300;2022-10-26T08:05:07;10.57;;;6.93;;
17592;SDS011;8915;51.760;14.300;2022-10-26T08:07:38;12.50;;;6.40;;
17592;SDS011;8915;51.760;14.300;2022-10-26T08:10:05;9.07;;;6.20;;
17592;SDS011;8915;51.760;14.300;2022-10-26T08:12:32;19.33;;;6.67;;
17592;SDS011;8915;51.760;14.300;2022-10-26T08:14:59;14.07;;;5.13;;
17592;SDS011;8915;51.760;14.300;2022-10-26T08:17:27;13.07;;;5.73;;
17592;SDS011;8915;51.760;14.300;2022-10-26T08:19:53;11.60;;;6.10;;
17592;SDS011;8915;51.760;14.300;2022-10-26T08:22:21;7.50;;;5.23;;
17592;SDS011;8915;51.760;14.300;2022-10-26T08:24:47;8.77;;;5.43;;
17592;SDS011;8915;51.760;14.300;2022-10-26T08:27:14;13.30;;;6.20;;
17592;SDS011;8915;51.760;14.300;2022-10-26T08:29:40;7.83;;;5.50;;
17592;SDS011;8915;51.760;14.300;2022-10-26T08:32:07;9.33;;;5.40;;
17592;SDS011;8915;51.760;14.300;2022-10-26T08:34:34;10.57;;;5.73;;
17592;SDS011;8915;51.760;14.300;2022-10-26T08:37:00;10.43;;;5.60;;
17592;SDS011;8915;51.760;14.300;2022-10-26T08:39:28;7.77;;;5.43;;
17592;SDS011;8915;51.760;14.300;2022-10-26T08:41:55;8.60;;;5.57;;
17592;SDS011;8915;51.760;14.300;2022-10-26T08:44:28;14.30;;;6.53;;
17592;SDS011;8915;51.760;14.300;2022-10-26T08:46:58;7.93;;;5.83;;
17592;SDS011;8915;51.760;14.300;2022-10-26T08:49:35;10.30;;;5.27;;
17592;SDS011;8915;51.760;14.300;2022-10-26T08:52:08;11.73;;;5.63;;
17592;SDS011;8915;51.760;14.300;2022-10-26T08:54:39;13.50;;;6.60;;
17592;SDS011;8915;51.760;14.300;2022-10-26T08:57:11;10.40;;;6.43;;
17592;SDS011;8915;51.760;14.300;2022-10-26T08:59:43;13.57;;;7.30;;
17592;SDS011;8915;51.760;14.300;2022-10-26T09:02:14;10.80;;;6.50;;
17592;SDS011;8915;51.760;14.300;2022-10-26T09:04:42;15.37;;;6.13;;
17592;SDS011;8915;51.760;14.300;2022-10-26T09:07:11;10.63;;;6.77;;
17592;SDS011;8915;51.760;14.300;2022-10-26T09:09:51;10.23;;;5.40;;
17592;SDS011;8915;51.760;14.300;2022-10-26T09:12:27;8.03;;;5.67;;
17592;SDS011;8915;51.760;14.300;2022-10-26T09:15:09;12.20;;;6.10;;
17592;SDS011;8915;51.760;14.300;2022-10-26T09:17:41;14.97;;;6.33;;
17592;SDS011;8915;51.760;14.300;2022-10-26T09:20:34;8.43;;;5.57;;
17592;SDS011;8915;51.760;14.300;2022-10-26T09:23:18;12.40;;;5.63;;
17592;SDS011;8915;51.760;14.300;2022-10-26T09:25:57;7.60;;;5.30;;
17592;SDS011;8915;51.760;14.300;2022-10-26T09:28:24;9.77;;;5.63;;
17592;SDS011;8915;51.760;14.300;2022-10-26T09:30:53;10.07;;;5.57;;
17592;SDS011;8915;51.760;14.300;2022-10-26T09:33:24;12.07;;;5.77;;
17592;SDS011;8915;51.760;14.300;2022-10-26T09:35:51;12.03;;;5.87;;
17592;SDS011;8915;51.760;14.300;2022-10-26T09:38:23;15.33;;;5.57;;
17592;SDS011;8915;51.760;14.300;2022-10-26T09:40:55;8.60;;;5.20;;
17592;SDS011;8915;51.760;14.300;2022-10-26T09:43:28;10.30;;;5.00;;
17592;SDS011;8915;51.760;14.300;2022-10-26T09:46:02;9.07;;;4.77;;
17592;SDS011;8915;51.760;14.300;2022-10-26T09:48:30;7.07;;;4.43;;
17592;SDS011;8915;51.760;14.300;2022-10-26T09:51:01;8.40;;;3.90;;
17592;SDS011;8915;51.760;14.300;2022-10-26T09:53:28;9.93;;;4.40;;
17592;SDS011;8915;51.760;14.300;2022-10-26T09:55:58;6.87;;;4.17;;
17592;SDS011;8915;51.760;14.300;2022-10-26T09:58:30;7.00;;;4.03;;
17592;SDS011;8915;51.760;14.300;2022-10-26T10:01:01;7.07;;;4.40;;
17592;SDS011;8915;51.760;14.300;2022-10-26T10:03:28;8.00;;;4.37;;
17592;SDS011;8915;51.760;14.300;2022-10-26T10:06:14;5.80;;;3.97;;
17592;SDS011;8915;51.760;14.300;2022-10-26T10:08:42;10.20;;;4.20;;
17592;SDS011;8915;51.760;14.300;2022-10-26T10:11:12;6.30;;;3.97;;
17592;SDS011;8915;51.760;14.300;2022-10-26T10:13:41;9.23;;;4.50;;
17592;SDS011;8915;51.760;14.300;2022-10-26T10:16:12;6.00;;;3.97;;
17592;SDS011;8915;51.760;14.300;2022-10-26T10:18:51;9.70;;;4.17;;
17592;SDS011;8915;51.760;14.300;2022-10-26T10:21:18;10.30;;;4.33;;
17592;SDS011;8915;51.760;14.300;2022-10-26T10:23:46;9.63;;;4.53;;
17592;SDS011;8915;51.760;14.300;2022-10-26T10:26:17;14.73;;;5.10;;
17592;SDS011;8915;51.760;14.300;2022-10-26T10:28:54;9.20;;;4.07;;
17592;SDS011;8915;51.760;14.300;2022-10-26T10:31:25;8.30;;;4.10;;
17592;SDS011;8915;51.760;14.300;2022-10-26T10:33:53;8.37;;;4.53;;
17592;SDS011;8915;51.760;14.300;2022-10-26T10:36:20;11.73;;;4.60;;
17592;SDS011;8915;51.760;14.300;2022-10-26T10:38:49;9.67;;;4.23;;
17592;SDS011;8915;51.760;14.300;2022-10-26T10:41:23;8.00;;;4.17;;
17592;SDS011;8915;51.760;14.300;2022-10-26T10:43:52;7.17;;;4.60;;
17592;SDS011;8915;51.760;14.300;2022-10-26T10:46:22;9.27;;;4.50;;
17592;SDS011;8915;51.760;14.300;2022-10-26T10:48:52;9.70;;;4.33;;
17592;SDS011;8915;51.760;14.300;2022-10-26T10:51:26;10.00;;;4.23;;
17592;SDS011;8915;51.760;14.300;2022-10-26T10:53:54;8.33;;;3.77;;
17592;SDS011;8915;51.760;14.300;2022-10-26T10:56:25;9.03;;;4.03;;
17592;SDS011;8915;51.760;14.300;2022-10-26T10:59:00;8.70;;;3.80;;
17592;SDS011;8915;51.760;14.300;2022-10-26T11:01:37;5.27;;;3.50;;
17592;SDS011;8915;51.760;14.300;2022-10-26T11:04:12;5.83;;;3.23;;
17592;SDS011;8915;51.760;14.300;2022-10-26T11:06:51;5.27;;;3.10;;
17592;SDS011;8915;51.760;14.300;2022-10-26T11:09:23;8.10;;;2.93;;
17592;SDS011;8915;51.760;14.300;2022-10-26T11:11:55;8.03;;;2.50;;
17592;SDS011;8915;51.760;14.300;2022-10-26T11:14:27;3.83;;;2.13;;
17592;SDS011;8915;51.760;14.300;2022-10-26T11:16:58;4.47;;;1.80;;
17592;SDS011;8915;51.760;14.300;2022-10-26T11:19:32;4.77;;;1.70;;
17592;SDS011;8915;51.760;14.300;2022-10-26T11:22:07;3.50;;;1.40;;
17592;SDS011;8915;51.760;14.300;2022-10-26T11:24:40;1.90;;;1.20;;
17592;SDS011;8915;51.760;14.300;2022-10-26T11:27:12;2.13;;;1.40;;
17592;SDS011;8915;51.760;14.300;2022-10-26T11:29:42;1.60;;;1.47;;
17592;SDS011;8915;51.760;14.300;2022-10-26T11:32:15;1.50;;;1.33;;
17592;SDS011;8915;51.760;14.300;2022-10-26T11:34:47;5.27;;;1.30;;
17592;SDS011;8915;51.760;14.300;2022-10-26T11:37:21;1.93;;;1.43;;
17592;SDS011;8915;51.760;14.300;2022-10-26T11:40:00;2.70;;;2.07;;
17592;SDS011;8915;51.760;14.300;2022-10-26T11:42:32;4.37;;;1.70;;
17592;SDS011;8915;51.760;14.300;2022-10-26T11:45:03;1.80;;;1.40;;
17592;SDS011;8915;51.760;14.300;2022-10-26T11:47:39;2.37;;;1.30;;
17592;SDS011;8915;51.760;14.300;2022-10-26T11:50:12;1.80;;;1.50;;
17592;SDS011;8915;51.760;14.300;2022-10-26T11:52:43;2.93;;;1.63;;
17592;SDS011;8915;51.760;14.300;2022-10-26T11:55:13;3.63;;;1.80;;
17592;SDS011;8915;51.760;14.300;2022-10-26T11:57:40;1.83;;;1.33;;
17592;SDS011;8915;51.760;14.300;2022-10-26T12:00:08;4.00;;;1.60;;
17592;SDS011;8915;51.760;14.300;2022-10-26T12:02:41;1.30;;;1.20;;
17592;SDS011;8915;51.760;14.300;2022-10-26T12:05:16;2.37;;;1.60;;
17592;SDS011;8915;51.760;14.300;2022-10-26T12:07:46;3.73;;;1.60;;
17592;SDS011;8915;51.760;14.300;2022-10-26T12:10:20;5.77;;;1.40;;
17592;SDS011;8915;51.760;14.300;2022-10-26T12:12:53;3.53;;;1.30;;
17592;SDS011;8915;51.760;14.300;2022-10-26T12:15:25;1.70;;;1.23;;
17592;SDS011;8915;51.760;14.300;2022-10-26T12:17:59;4.33;;;1.67;;
17592;SDS011;8915;51.760;14.300;2022-10-26T12:20:53;2.30;;;1.30;;
17592;SDS011;8915;51.760;14.300;2022-10-26T12:23:26;2.40;;;1.60;;
17592;SDS011;8915;51.760;14.300;2022-10-26T12:32:01;1.30;;;1.10;;
17592;SDS011;8915;51.760;14.300;2022-10-26T12:37:28;2.20;;;1.10;;
17592;SDS011;8915;51.760;14.300;2022-10-26T12:42:57;2.23;;;1.03;;
17592;SDS011;8915;51.760;14.300;2022-10-26T12:52:26;2.47;;;1.00;;
17592;SDS011;8915;51.760;14.300;2022-10-26T12:55:07;1.93;;;1.20;;
17592;SDS011;8915;51.760;14.300;2022-10-26T12:57:46;1.07;;;0.97;;
17592;SDS011;8915;51.760;14.300;2022-10-26T13:00:22;1.30;;;1.20;;
17592;SDS011;8915;51.760;14.300;2022-10-26T13:02:53;2.23;;;1.30;;
17592;SDS011;8915;51.760;14.300;2022-10-26T13:05:39;2.30;;;1.23;;
17592;SDS011;8915;51.760;14.300;2022-10-26T13:08:23;2.33;;;1.20;;
17592;SDS011;8915;51.760;14.300;2022-10-26T13:10:58;1.23;;;1.10;;
17592;SDS011;8915;51.760;14.300;2022-10-26T13:13:28;2.90;;;1.30;;
17592;SDS011;8915;51.760;14.300;2022-10-26T13:15:58;2.73;;;1.47;;
17592;SDS011;8915;51.760;14.300;2022-10-26T13:18:26;1.73;;;1.37;;
17592;SDS011;8915;51.760;14.300;2022-10-26T13:20:57;2.23;;;1.33;;
17592;SDS011;8915;51.760;14.300;2022-10-26T13:23:29;2.00;;;1.47;;
17592;SDS011;8915;51.760;14.300;2022-10-26T13:26:02;1.87;;;1.37;;
17592;SDS011;8915;51.760;14.300;2022-10-26T13:28:33;1.80;;;1.20;;
17592;SDS011;8915;51.760;14.300;2022-10-26T13:31:11;4.27;;;1.73;;
17592;SDS011;8915;51.760;14.300;2022-10-26T13:34:04;2.97;;;1.40;;
17592;SDS011;8915;51.760;14.300;2022-10-26T13:36:40;1.87;;;1.60;;
17592;SDS011;8915;51.760;14.300;2022-10-26T13:39:11;2.10;;;1.47;;
17592;SDS011;8915;51.760;14.300;2022-10-26T13:41:41;2.77;;;1.60;;
17592;SDS011;8915;51.760;14.300;2022-10-26T13:44:11;6.80;;;1.80;;
17592;SDS011;8915;51.760;14.300;2022-10-26T13:46:45;3.07;;;1.53;;
17592;SDS011;8915;51.760;14.300;2022-10-26T13:49:20;1.70;;;1.13;;
17592;SDS011;8915;51.760;14.300;2022-10-26T13:51:52;2.40;;;1.63;;
17592;SDS011;8915;51.760;14.300;2022-10-26T13:54:21;1.77;;;1.40;;
17592;SDS011;8915;51.760;14.300;2022-10-26T13:56:56;3.60;;;1.60;;
17592;SDS011;8915;51.760;14.300;2022-10-26T13:59:29;3.70;;;1.60;;
17592;SDS011;8915;51.760;14.300;2022-10-26T14:02:06;1.77;;;1.40;;
17592;SDS011;8915;51.760;14.300;2022-10-26T14:04:39;2.87;;;1.50;;
17592;SDS011;8915;51.760;14.300;2022-10-26T14:07:10;2.17;;;1.73;;
17592;SDS011;8915;51.760;14.300;2022-10-26T14:09:48;2.47;;;1.43;;
17592;SDS011;8915;51.760;14.300;2022-10-26T14:12:15;4.07;;;1.50;;
17592;SDS011;8915;51.760;14.300;2022-10-26T14:14:42;2.00;;;1.63;;
17592;SDS011;8915;51.760;14.300;2022-10-26T14:17:14;2.77;;;1.90;;
17592;SDS011;8915;51.760;14.300;2022-10-26T14:19:44;2.87;;;1.90;;
17592;SDS011;8915;51.760;14.300;2022-10-26T14:22:14;3.20;;;2.10;;
17592;SDS011;8915;51.760;14.300;2022-10-26T14:24:49;3.73;;;1.80;;
17592;SDS011;8915;51.760;14.300;2022-10-26T14:27:18;4.03;;;2.53;;
17592;SDS011;8915;51.760;14.300;2022-10-26T14:29:45;2.53;;;1.70;;
17592;SDS011;8915;51.760;14.300;2022-10-26T14:32:20;2.67;;;1.73;;
17592;SDS011;8915;51.760;14.300;2022-10-26T14:34:48;2.53;;;1.70;;
17592;SDS011;8915;51.760;14.300;2022-10-26T14:37:17;1.77;;;1.43;;
17592;SDS011;8915;51.760;14.300;2022-10-26T14:39:50;3.33;;;1.67;;
17592;SDS011;8915;51.760;14.300;2022-10-26T14:42:19;2.40;;;1.50;;
17592;SDS011;8915;51.760;14.300;2022-10-26T14:44:50;2.83;;;1.60;;
17592;SDS011;8915;51.760;14.300;2022-10-26T14:47:18;4.03;;;2.00;;
17592;SDS011;8915;51.760;14.300;2022-10-26T14:52:20;2.30;;;1.77;;
17592;SDS011;8915;51.760;14.300;2022-10-26T14:54:55;2.57;;;1.97;;
17592;SDS011;8915;51.760;14.300;2022-10-26T14:57:32;3.17;;;1.70;;
17592;SDS011;8915;51.760;14.300;2022-10-26T15:00:00;4.30;;;1.90;;
17592;SDS011;8915;51.760;14.300;2022-10-26T15:02:30;3.37;;;2.13;;
17592;SDS011;8915;51.760;14.300;2022-10-26T15:04:58;3.00;;;2.00;;
17592;SDS011;8915;51.760;14.300;2022-10-26T15:07:35;3.60;;;1.70;;
17592;SDS011;8915;51.760;14.300;2022-10-26T15:10:04;2.23;;;1.67;;
17592;SDS011;8915;51.760;14.300;2022-10-26T15:12:31;3.00;;;2.00;;
17592;SDS011;8915;51.760;14.300;2022-10-26T15:15:16;3.33;;;2.20;;
17592;SDS011;8915;51.760;14.300;2022-10-26T15:17:49;2.40;;;1.97;;
17592;SDS011;8915;51.760;14.300;2022-10-26T15:20:18;2.87;;;2.10;;
17592;SDS011;8915;51.760;14.300;2022-10-26T15:22:50;4.50;;;2.00;;
17592;SDS011;8915;51.760;14.300;2022-10-26T15:25:21;3.73;;;2.30;;
17592;SDS011;8915;51.760;14.300;2022-10-26T15:27:49;3.50;;;2.03;;
17592;SDS011;8915;51.760;14.300;2022-10-26T15:30:18;5.73;;;1.97;;